sensor_id;sensor_type;location;lat;lon;timestamp;temperature;humidity
41437;DHT22;27178;49.460;10.850;2024-01-16T00:02:24;3.40;77.30
41437;DHT22;27178;49.460;10.850;2024-01-16T00:04:53;3.40;76.80
41437;DHT22;27178;49.460;10.850;2024-01-16T00:07:21;3.40;77.10
41437;DHT22;27178;49.460;10.850;2024-01-16T00:09:50;3.30;77.10
41437;DHT22;27178;49.460;10.850;2024-01-16T00:12:20;3.30;77.00
41437;DHT22;27178;49.460;10.850;2024-01-16T00:14:48;3.30;77.20
41437;DHT22;27178;49.460;10.850;2024-01-16T00:17:18;3.30;76.90
41437;DHT22;27178;49.460;10.850;2024-01-16T00:19:46;3.30;77.00
41437;DHT22;27178;49.460;10.850;2024-01-16T00:22:14;3.30;77.10
41437;DHT22;27178;49.460;10.850;2024-01-16T00:24:42;3.30;76.80
41437;DHT22;27178;49.460;10.850;2024-01-16T00:27:10;3.30;76.90
41437;DHT22;27178;49.460;10.850;2024-01-16T00:29:39;3.30;77.00
41437;DHT22;27178;49.460;10.850;2024-01-16T00:32:07;3.30;76.90
41437;DHT22;27178;49.460;10.850;2024-01-16T00:34:37;3.30;76.80
41437;DHT22;27178;49.460;10.850;2024-01-16T00:37:05;3.30;77.00
41437;DHT22;27178;49.460;10.850;2024-01-16T00:39:33;3.20;76.60
41437;DHT22;27178;49.460;10.850;2024-01-16T00:42:02;3.30;76.80
41437;DHT22;27178;49.460;10.850;2024-01-16T00:44:30;3.30;77.00
41437;DHT22;27178;49.460;10.850;2024-01-16T00:46:59;3.30;77.00
41437;DHT22;27178;49.460;10.850;2024-01-16T00:49:29;3.30;77.00
41437;DHT22;27178;49.460;10.850;2024-01-16T00:51:58;3.30;77.00
41437;DHT22;27178;49.460;10.850;2024-01-16T00:54:27;3.20;76.80
41437;DHT22;27178;49.460;10.850;2024-01-16T00:56:55;3.20;76.80
41437;DHT22;27178;49.460;10.850;2024-01-16T00:59:27;3.20;76.70
41437;DHT22;27178;49.460;10.850;2024-01-16T01:01:55;3.20;76.60
41437;DHT22;27178;49.460;10.850;2024-01-16T01:04:23;3.20;76.80
41437;DHT22;27178;49.460;10.850;2024-01-16T01:06:52;3.20;76.60
41437;DHT22;27178;49.460;10.850;2024-01-16T01:09:21;3.20;76.60
41437;DHT22;27178;49.460;10.850;2024-01-16T01:11:50;3.30;76.70
41437;DHT22;27178;49.460;10.850;2024-01-16T01:14:18;3.30;76.60
41437;DHT22;27178;49.460;10.850;2024-01-16T01:16:46;3.20;76.70
41437;DHT22;27178;49.460;10.850;2024-01-16T01:19:15;3.20;76.80
41437;DHT22;27178;49.460;10.850;2024-01-16T01:21:43;3.20;76.50
41437;DHT22;27178;49.460;10.850;2024-01-16T01:24:11;3.20;76.80
41437;DHT22;27178;49.460;10.850;2024-01-16T01:26:42;3.70;77.00
41437;DHT22;27178;49.460;10.850;2024-01-16T01:29:11;3.20;76.70
41437;DHT22;27178;49.460;10.850;2024-01-16T01:31:39;3.20;76.80
41437;DHT22;27178;49.460;10.850;2024-01-16T01:34:08;3.20;76.70
41437;DHT22;27178;49.460;10.850;2024-01-16T01:36:36;3.20;76.80
41437;DHT22;27178;49.460;10.850;2024-01-16T01:39:04;3.20;76.60
41437;DHT22;27178;49.460;10.850;2024-01-16T01:41:32;3.20;76.70
41437;DHT22;27178;49.460;10.850;2024-01-16T01:44:02;3.20;76.80
41437;DHT22;27178;49.460;10.850;2024-01-16T01:46:32;3.20;76.70
41437;DHT22;27178;49.460;10.850;2024-01-16T01:49:00;3.20;76.70
41437;DHT22;27178;49.460;10.850;2024-01-16T01:51:30;3.20;76.80
41437;DHT22;27178;49.460;10.850;2024-01-16T01:53:58;3.20;76.80
41437;DHT22;27178;49.460;10.850;2024-01-16T01:56:28;3.20;77.20
41437;DHT22;27178;49.460;10.850;2024-01-16T01:58:57;3.30;77.00
41437;DHT22;27178;49.460;10.850;2024-01-16T02:01:29;3.20;76.90
41437;DHT22;27178;49.460;10.850;2024-01-16T02:03:58;3.20;76.80
41437;DHT22;27178;49.460;10.850;2024-01-16T02:06:27;3.20;76.70
41437;DHT22;27178;49.460;10.850;2024-01-16T02:08:55;3.20;76.60
41437;DHT22;27178;49.460;10.850;2024-01-16T02:11:24;3.20;76.70
41437;DHT22;27178;49.460;10.850;2024-01-16T02:13:53;3.20;76.80
41437;DHT22;27178;49.460;10.850;2024-01-16T02:16:22;3.20;76.90
41437;DHT22;27178;49.460;10.850;2024-01-16T02:18:52;3.20;77.00
41437;DHT22;27178;49.460;10.850;2024-01-16T02:21:22;3.20;76.90
41437;DHT22;27178;49.460;10.850;2024-01-16T02:23:52;3.20;77.00
41437;DHT22;27178;49.460;10.850;2024-01-16T02:26:21;3.30;77.00
41437;DHT22;27178;49.460;10.850;2024-01-16T02:28:49;3.20;76.80
41437;DHT22;27178;49.460;10.850;2024-01-16T02:31:18;3.30;76.80
41437;DHT22;27178;49.460;10.850;2024-01-16T02:33:46;3.20;76.60
41437;DHT22;27178;49.460;10.850;2024-01-16T02:36:15;3.20;76.60
41437;DHT22;27178;49.460;10.850;2024-01-16T02:38:43;3.20;76.60
41437;DHT22;27178;49.460;10.850;2024-01-16T02:41:15;3.50;76.80
41437;DHT22;27178;49.460;10.850;2024-01-16T02:43:44;3.20;76.40
41437;DHT22;27178;49.460;10.850;2024-01-16T02:46:13;3.20;76.60
41437;DHT22;27178;49.460;10.850;2024-01-16T02:48:41;3.20;76.60
41437;DHT22;27178;49.460;10.850;2024-01-16T02:51:10;3.20;76.70
41437;DHT22;27178;49.460;10.850;2024-01-16T02:53:39;3.20;76.70
41437;DHT22;27178;49.460;10.850;2024-01-16T02:56:08;3.20;76.60
41437;DHT22;27178;49.460;10.850;2024-01-16T02:58:38;3.20;76.70
41437;DHT22;27178;49.460;10.850;2024-01-16T03:01:06;3.20;76.70
41437;DHT22;27178;49.460;10.850;2024-01-16T03:03:34;3.20;76.60
41437;DHT22;27178;49.460;10.850;2024-01-16T03:06:03;3.20;76.60
41437;DHT22;27178;49.460;10.850;2024-01-16T03:08:32;3.20;76.80
41437;DHT22;27178;49.460;10.850;2024-01-16T03:11:00;3.20;76.70
41437;DHT22;27178;49.460;10.850;2024-01-16T03:13:29;3.20;76.60
41437;DHT22;27178;49.460;10.850;2024-01-16T03:15:59;3.20;76.60
41437;DHT22;27178;49.460;10.850;2024-01-16T03:18:28;3.10;76.60
41437;DHT22;27178;49.460;10.850;2024-01-16T03:20:58;3.20;76.60
41437;DHT22;27178;49.460;10.850;2024-01-16T03:23:26;3.20;76.60
41437;DHT22;27178;49.460;10.850;2024-01-16T03:25:55;3.20;76.60
41437;DHT22;27178;49.460;10.850;2024-01-16T03:28:24;3.20;77.50
41437;DHT22;27178;49.460;10.850;2024-01-16T03:30:52;3.20;76.70
41437;DHT22;27178;49.460;10.850;2024-01-16T03:33:22;3.20;76.70
41437;DHT22;27178;49.460;10.850;2024-01-16T03:35:51;3.10;76.70
41437;DHT22;27178;49.460;10.850;2024-01-16T03:38:19;3.20;76.60
41437;DHT22;27178;49.460;10.850;2024-01-16T03:40:48;3.10;76.60
41437;DHT22;27178;49.460;10.850;2024-01-16T03:43:16;3.20;76.70
41437;DHT22;27178;49.460;10.850;2024-01-16T03:45:44;3.20;76.70
41437;DHT22;27178;49.460;10.850;2024-01-16T03:48:13;3.10;76.60
41437;DHT22;27178;49.460;10.850;2024-01-16T03:50:43;3.20;76.80
41437;DHT22;27178;49.460;10.850;2024-01-16T03:53:12;3.20;76.80
41437;DHT22;27178;49.460;10.850;2024-01-16T03:55:41;3.10;76.60
41437;DHT22;27178;49.460;10.850;2024-01-16T03:58:09;3.20;76.80
41437;DHT22;27178;49.460;10.850;2024-01-16T04:00:39;3.10;76.60
41437;DHT22;27178;49.460;10.850;2024-01-16T04:03:07;3.20;76.50
41437;DHT22;27178;49.460;10.850;2024-01-16T04:05:35;3.10;76.30
41437;DHT22;27178;49.460;10.850;2024-01-16T04:08:05;3.10;76.40
41437;DHT22;27178;49.460;10.850;2024-01-16T04:10:33;3.10;76.50
41437;DHT22;27178;49.460;10.850;2024-01-16T04:13:02;3.10;76.60
41437;DHT22;27178;49.460;10.850;2024-01-16T04:15:30;3.10;76.60
41437;DHT22;27178;49.460;10.850;2024-01-16T04:18:00;3.10;76.50
41437;DHT22;27178;49.460;10.850;2024-01-16T04:20:28;3.10;76.50
41437;DHT22;27178;49.460;10.850;2024-01-16T04:22:56;3.10;76.50
41437;DHT22;27178;49.460;10.850;2024-01-16T04:25:26;3.10;76.60
41437;DHT22;27178;49.460;10.850;2024-01-16T04:27:55;3.10;76.60
41437;DHT22;27178;49.460;10.850;2024-01-16T04:30:26;3.10;76.70
41437;DHT22;27178;49.460;10.850;2024-01-16T04:32:54;3.10;76.50
41437;DHT22;27178;49.460;10.850;2024-01-16T04:35:23;3.10;76.60
41437;DHT22;27178;49.460;10.850;2024-01-16T04:37:51;3.10;76.60
41437;DHT22;27178;49.460;10.850;2024-01-16T04:40:19;3.10;76.70
41437;DHT22;27178;49.460;10.850;2024-01-16T04:42:50;3.10;76.60
41437;DHT22;27178;49.460;10.850;2024-01-16T04:45:18;3.10;76.40
41437;DHT22;27178;49.460;10.850;2024-01-16T04:47:46;3.10;76.50
41437;DHT22;27178;49.460;10.850;2024-01-16T04:50:15;3.10;76.40
41437;DHT22;27178;49.460;10.850;2024-01-16T04:52:43;3.20;76.60
41437;DHT22;27178;49.460;10.850;2024-01-16T04:55:11;3.10;76.50
41437;DHT22;27178;49.460;10.850;2024-01-16T04:57:40;3.10;76.40
41437;DHT22;27178;49.460;10.850;2024-01-16T05:00:11;3.10;76.40
41437;DHT22;27178;49.460;10.850;2024-01-16T05:02:39;3.10;76.60
41437;DHT22;27178;49.460;10.850;2024-01-16T05:05:08;3.10;76.50
41437;DHT22;27178;49.460;10.850;2024-01-16T05:07:36;3.10;76.60
41437;DHT22;27178;49.460;10.850;2024-01-16T05:10:06;3.10;76.50
41437;DHT22;27178;49.460;10.850;2024-01-16T05:12:38;3.10;76.60
41437;DHT22;27178;49.460;10.850;2024-01-16T05:15:07;3.10;76.30
41437;DHT22;27178;49.460;10.850;2024-01-16T05:17:39;3.10;76.40
41437;DHT22;27178;49.460;10.850;2024-01-16T05:20:08;3.10;76.40
41437;DHT22;27178;49.460;10.850;2024-01-16T05:22:37;3.10;76.50
41437;DHT22;27178;49.460;10.850;2024-01-16T05:25:07;3.10;76.50
41437;DHT22;27178;49.460;10.850;2024-01-16T05:27:35;3.00;76.40
41437;DHT22;27178;49.460;10.850;2024-01-16T05:30:04;3.00;76.50
41437;DHT22;27178;49.460;10.850;2024-01-16T05:32:34;3.00;76.60
41437;DHT22;27178;49.460;10.850;2024-01-16T05:35:05;3.00;76.60
41437;DHT22;27178;49.460;10.850;2024-01-16T05:37:33;3.00;76.60
41437;DHT22;27178;49.460;10.850;2024-01-16T05:40:03;3.00;76.60
41437;DHT22;27178;49.460;10.850;2024-01-16T05:42:32;3.00;76.60
41437;DHT22;27178;49.460;10.850;2024-01-16T05:45:01;3.00;77.00
41437;DHT22;27178;49.460;10.850;2024-01-16T05:47:29;3.00;76.60
41437;DHT22;27178;49.460;10.850;2024-01-16T05:49:58;3.00;76.70
41437;DHT22;27178;49.460;10.850;2024-01-16T05:52:28;3.00;76.60
41437;DHT22;27178;49.460;10.850;2024-01-16T05:54:56;3.00;76.60
41437;DHT22;27178;49.460;10.850;2024-01-16T05:57:26;3.00;76.60
41437;DHT22;27178;49.460;10.850;2024-01-16T05:59:54;3.00;76.60
41437;DHT22;27178;49.460;10.850;2024-01-16T06:02:23;3.00;76.60
41437;DHT22;27178;49.460;10.850;2024-01-16T06:04:51;3.00;76.60
41437;DHT22;27178;49.460;10.850;2024-01-16T06:07:19;3.00;76.60
41437;DHT22;27178;49.460;10.850;2024-01-16T06:09:50;3.00;76.50
41437;DHT22;27178;49.460;10.850;2024-01-16T06:12:18;3.00;76.70
41437;DHT22;27178;49.460;10.850;2024-01-16T06:14:47;3.00;76.60
41437;DHT22;27178;49.460;10.850;2024-01-16T06:17:15;3.00;76.50
41437;DHT22;27178;49.460;10.850;2024-01-16T06:19:43;3.00;76.60
41437;DHT22;27178;49.460;10.850;2024-01-16T06:22:12;3.00;76.50
41437;DHT22;27178;49.460;10.850;2024-01-16T06:24:40;3.00;76.50
41437;DHT22;27178;49.460;10.850;2024-01-16T06:27:10;3.00;76.50
41437;DHT22;27178;49.460;10.850;2024-01-16T06:29:41;3.00;76.60
41437;DHT22;27178;49.460;10.850;2024-01-16T06:32:09;3.00;76.60
41437;DHT22;27178;49.460;10.850;2024-01-16T06:34:37;3.00;76.50
41437;DHT22;27178;49.460;10.850;2024-01-16T06:37:06;3.00;76.40
41437;DHT22;27178;49.460;10.850;2024-01-16T06:39:35;3.00;76.50
41437;DHT22;27178;49.460;10.850;2024-01-16T06:42:03;3.00;76.50
41437;DHT22;27178;49.460;10.850;2024-01-16T06:44:38;3.00;76.70
41437;DHT22;27178;49.460;10.850;2024-01-16T06:47:06;3.00;76.70
41437;DHT22;27178;49.460;10.850;2024-01-16T06:49:34;3.00;76.70
41437;DHT22;27178;49.460;10.850;2024-01-16T06:52:03;3.00;76.60
41437;DHT22;27178;49.460;10.850;2024-01-16T06:54:31;3.00;76.70
41437;DHT22;27178;49.460;10.850;2024-01-16T06:57:00;3.00;76.70
41437;DHT22;27178;49.460;10.850;2024-01-16T06:59:28;3.00;76.70
41437;DHT22;27178;49.460;10.850;2024-01-16T07:01:58;3.00;76.50
41437;DHT22;27178;49.460;10.850;2024-01-16T07:04:26;3.00;76.40
41437;DHT22;27178;49.460;10.850;2024-01-16T07:06:55;3.00;76.30
41437;DHT22;27178;49.460;10.850;2024-01-16T07:09:23;3.00;76.10
41437;DHT22;27178;49.460;10.850;2024-01-16T07:11:51;3.00;76.20
41437;DHT22;27178;49.460;10.850;2024-01-16T07:14:19;2.90;76.10
41437;DHT22;27178;49.460;10.850;2024-01-16T07:16:48;3.00;76.30
41437;DHT22;27178;49.460;10.850;2024-01-16T07:19:18;3.00;76.40
41437;DHT22;27178;49.460;10.850;2024-01-16T07:21:46;2.90;76.10
41437;DHT22;27178;49.460;10.850;2024-01-16T07:24:14;2.90;76.00
41437;DHT22;27178;49.460;10.850;2024-01-16T07:26:42;2.90;76.00
41437;DHT22;27178;49.460;10.850;2024-01-16T07:29:11;2.90;76.10
41437;DHT22;27178;49.460;10.850;2024-01-16T07:31:39;2.90;76.20
41437;DHT22;27178;49.460;10.850;2024-01-16T07:34:08;2.90;76.10
41437;DHT22;27178;49.460;10.850;2024-01-16T07:36:38;2.90;76.00
41437;DHT22;27178;49.460;10.850;2024-01-16T07:39:06;2.90;76.00
41437;DHT22;27178;49.460;10.850;2024-01-16T07:41:35;2.90;76.10
41437;DHT22;27178;49.460;10.850;2024-01-16T07:44:04;2.90;76.10
41437;DHT22;27178;49.460;10.850;2024-01-16T07:46:32;2.90;76.20
41437;DHT22;27178;49.460;10.850;2024-01-16T07:49:00;2.90;76.30
41437;DHT22;27178;49.460;10.850;2024-01-16T07:51:29;2.90;76.20
41437;DHT22;27178;49.460;10.850;2024-01-16T07:54:06;2.90;76.00
41437;DHT22;27178;49.460;10.850;2024-01-16T07:56:35;2.90;75.90
41437;DHT22;27178;49.460;10.850;2024-01-16T07:59:05;2.90;76.00
41437;DHT22;27178;49.460;10.850;2024-01-16T08:01:33;2.90;75.90
41437;DHT22;27178;49.460;10.850;2024-01-16T08:04:02;2.90;75.90
41437;DHT22;27178;49.460;10.850;2024-01-16T08:06:31;3.00;75.90
41437;DHT22;27178;49.460;10.850;2024-01-16T08:09:00;3.00;76.00
41437;DHT22;27178;49.460;10.850;2024-01-16T08:11:30;3.00;75.90
41437;DHT22;27178;49.460;10.850;2024-01-16T08:13:58;3.00;75.80
41437;DHT22;27178;49.460;10.850;2024-01-16T08:16:27;3.00;75.90
41437;DHT22;27178;49.460;10.850;2024-01-16T08:18:55;3.00;75.90
41437;DHT22;27178;49.460;10.850;2024-01-16T08:21:23;3.00;75.70
41437;DHT22;27178;49.460;10.850;2024-01-16T08:23:51;3.00;75.70
41437;DHT22;27178;49.460;10.850;2024-01-16T08:26:20;3.10;75.90
41437;DHT22;27178;49.460;10.850;2024-01-16T08:28:49;3.10;75.70
41437;DHT22;27178;49.460;10.850;2024-01-16T08:31:18;3.10;75.70
41437;DHT22;27178;49.460;10.850;2024-01-16T08:33:46;3.10;75.80
41437;DHT22;27178;49.460;10.850;2024-01-16T08:36:19;3.10;75.70
41437;DHT22;27178;49.460;10.850;2024-01-16T08:38:48;3.10;75.70
41437;DHT22;27178;49.460;10.850;2024-01-16T08:41:16;3.10;76.00
41437;DHT22;27178;49.460;10.850;2024-01-16T08:43:45;3.20;76.40
41437;DHT22;27178;49.460;10.850;2024-01-16T08:46:18;3.20;76.30
41437;DHT22;27178;49.460;10.850;2024-01-16T08:48:48;3.20;76.40
41437;DHT22;27178;49.460;10.850;2024-01-16T08:51:16;3.20;76.40
41437;DHT22;27178;49.460;10.850;2024-01-16T08:53:45;3.20;76.30
41437;DHT22;27178;49.460;10.850;2024-01-16T08:56:14;3.30;76.10
41437;DHT22;27178;49.460;10.850;2024-01-16T08:58:44;3.30;75.80
41437;DHT22;27178;49.460;10.850;2024-01-16T09:01:13;3.30;75.80
41437;DHT22;27178;49.460;10.850;2024-01-16T09:03:43;3.30;76.10
41437;DHT22;27178;49.460;10.850;2024-01-16T09:06:12;3.30;76.10
41437;DHT22;27178;49.460;10.850;2024-01-16T09:08:40;3.40;76.10
41437;DHT22;27178;49.460;10.850;2024-01-16T09:11:08;3.40;76.10
41437;DHT22;27178;49.460;10.850;2024-01-16T09:13:38;3.40;76.10
41437;DHT22;27178;49.460;10.850;2024-01-16T09:16:06;3.40;76.00
41437;DHT22;27178;49.460;10.850;2024-01-16T09:18:34;3.40;75.80
41437;DHT22;27178;49.460;10.850;2024-01-16T09:21:04;3.40;75.70
41437;DHT22;27178;49.460;10.850;2024-01-16T09:23:33;3.50;75.70
41437;DHT22;27178;49.460;10.850;2024-01-16T09:26:01;3.50;75.70
41437;DHT22;27178;49.460;10.850;2024-01-16T09:28:29;3.50;75.80
41437;DHT22;27178;49.460;10.850;2024-01-16T09:30:58;3.50;75.90
41437;DHT22;27178;49.460;10.850;2024-01-16T09:33:26;3.50;75.90
41437;DHT22;27178;49.460;10.850;2024-01-16T09:35:54;3.50;75.70
41437;DHT22;27178;49.460;10.850;2024-01-16T09:38:24;3.60;75.80
41437;DHT22;27178;49.460;10.850;2024-01-16T09:40:53;3.60;75.90
41437;DHT22;27178;49.460;10.850;2024-01-16T09:43:23;3.60;75.70
41437;DHT22;27178;49.460;10.850;2024-01-16T09:45:55;3.60;75.50
41437;DHT22;27178;49.460;10.850;2024-01-16T09:48:28;3.70;75.70
41437;DHT22;27178;49.460;10.850;2024-01-16T09:50:57;3.70;75.30
41437;DHT22;27178;49.460;10.850;2024-01-16T09:53:27;3.70;75.40
41437;DHT22;27178;49.460;10.850;2024-01-16T09:56:00;3.70;75.70
41437;DHT22;27178;49.460;10.850;2024-01-16T09:58:34;3.70;75.50
41437;DHT22;27178;49.460;10.850;2024-01-16T10:01:05;3.70;75.20
41437;DHT22;27178;49.460;10.850;2024-01-16T10:03:34;3.70;75.30
41437;DHT22;27178;49.460;10.850;2024-01-16T10:06:04;3.80;75.50
41437;DHT22;27178;49.460;10.850;2024-01-16T10:08:35;3.80;75.40
41437;DHT22;27178;49.460;10.850;2024-01-16T10:11:04;3.80;74.90
41437;DHT22;27178;49.460;10.850;2024-01-16T10:13:33;3.80;75.00
41437;DHT22;27178;49.460;10.850;2024-01-16T10:16:02;3.80;75.30
41437;DHT22;27178;49.460;10.850;2024-01-16T10:18:31;3.80;75.00
41437;DHT22;27178;49.460;10.850;2024-01-16T10:20:59;3.90;74.90
41437;DHT22;27178;49.460;10.850;2024-01-16T10:23:29;3.90;75.10
41437;DHT22;27178;49.460;10.850;2024-01-16T10:26:09;3.90;75.10
41437;DHT22;27178;49.460;10.850;2024-01-16T10:28:38;3.90;74.70
41437;DHT22;27178;49.460;10.850;2024-01-16T10:31:08;3.90;74.90
41437;DHT22;27178;49.460;10.850;2024-01-16T10:33:37;4.00;75.10
41437;DHT22;27178;49.460;10.850;2024-01-16T10:36:11;4.00;75.30
41437;DHT22;27178;49.460;10.850;2024-01-16T10:38:41;4.00;75.00
41437;DHT22;27178;49.460;10.850;2024-01-16T10:41:13;4.10;75.00
41437;DHT22;27178;49.460;10.850;2024-01-16T10:43:42;4.10;75.10
41437;DHT22;27178;49.460;10.850;2024-01-16T10:46:12;4.10;75.10
41437;DHT22;27178;49.460;10.850;2024-01-16T10:48:42;4.10;74.60
41437;DHT22;27178;49.460;10.850;2024-01-16T10:51:14;4.20;74.50
41437;DHT22;27178;49.460;10.850;2024-01-16T10:53:43;4.20;74.60
41437;DHT22;27178;49.460;10.850;2024-01-16T10:56:16;4.30;74.60
41437;DHT22;27178;49.460;10.850;2024-01-16T10:58:51;4.30;74.60
41437;DHT22;27178;49.460;10.850;2024-01-16T11:01:24;4.30;75.80
41437;DHT22;27178;49.460;10.850;2024-01-16T11:03:53;4.30;75.10
41437;DHT22;27178;49.460;10.850;2024-01-16T11:06:24;4.40;75.00
41437;DHT22;27178;49.460;10.850;2024-01-16T11:08:54;4.40;74.80
41437;DHT22;27178;49.460;10.850;2024-01-16T11:11:27;4.50;74.80
41437;DHT22;27178;49.460;10.850;2024-01-16T11:13:56;4.50;74.40
41437;DHT22;27178;49.460;10.850;2024-01-16T11:16:25;4.60;74.00
41437;DHT22;27178;49.460;10.850;2024-01-16T11:18:54;4.60;74.00
41437;DHT22;27178;49.460;10.850;2024-01-16T11:21:43;4.60;74.00
41437;DHT22;27178;49.460;10.850;2024-01-16T11:24:12;4.70;73.90
41437;DHT22;27178;49.460;10.850;2024-01-16T11:26:42;4.80;74.20
41437;DHT22;27178;49.460;10.850;2024-01-16T11:29:34;4.80;74.30
41437;DHT22;27178;49.460;10.850;2024-01-16T11:32:04;4.80;74.00
41437;DHT22;27178;49.460;10.850;2024-01-16T11:34:53;4.90;74.00
41437;DHT22;27178;49.460;10.850;2024-01-16T11:37:29;4.90;73.70
41437;DHT22;27178;49.460;10.850;2024-01-16T11:40:24;5.00;73.20
41437;DHT22;27178;49.460;10.850;2024-01-16T11:42:55;5.00;72.70
41437;DHT22;27178;49.460;10.850;2024-01-16T11:45:48;5.00;73.00
41437;DHT22;27178;49.460;10.850;2024-01-16T11:48:17;5.10;72.50
41437;DHT22;27178;49.460;10.850;2024-01-16T11:50:47;5.10;72.70
41437;DHT22;27178;49.460;10.850;2024-01-16T11:53:34;5.10;72.30
41437;DHT22;27178;49.460;10.850;2024-01-16T11:56:35;5.10;70.90
41437;DHT22;27178;49.460;10.850;2024-01-16T11:59:55;5.10;71.30
41437;DHT22;27178;49.460;10.850;2024-01-16T12:02:36;5.10;71.70
41437;DHT22;27178;49.460;10.850;2024-01-16T12:05:06;5.10;72.10
41437;DHT22;27178;49.460;10.850;2024-01-16T12:07:48;5.10;71.90
41437;DHT22;27178;49.460;10.850;2024-01-16T12:10:18;5.10;71.50
41437;DHT22;27178;49.460;10.850;2024-01-16T12:12:48;5.10;71.70
41437;DHT22;27178;49.460;10.850;2024-01-16T12:15:19;5.10;71.80
41437;DHT22;27178;49.460;10.850;2024-01-16T12:17:54;5.10;71.80
41437;DHT22;27178;49.460;10.850;2024-01-16T12:20:25;5.10;71.70
41437;DHT22;27178;49.460;10.850;2024-01-16T12:22:58;5.10;71.60
41437;DHT22;27178;49.460;10.850;2024-01-16T12:25:29;5.10;71.40
41437;DHT22;27178;49.460;10.850;2024-01-16T12:28:20;5.10;71.30
41437;DHT22;27178;49.460;10.850;2024-01-16T12:31:00;5.10;71.70
41437;DHT22;27178;49.460;10.850;2024-01-16T12:33:30;5.10;70.80
41437;DHT22;27178;49.460;10.850;2024-01-16T12:36:03;5.10;71.20
41437;DHT22;27178;49.460;10.850;2024-01-16T12:38:32;5.10;71.10
41437;DHT22;27178;49.460;10.850;2024-01-16T12:41:05;5.10;71.20
41437;DHT22;27178;49.460;10.850;2024-01-16T12:43:35;5.20;71.40
41437;DHT22;27178;49.460;10.850;2024-01-16T12:46:05;5.20;71.50
41437;DHT22;27178;49.460;10.850;2024-01-16T12:48:33;5.20;71.00
41437;DHT22;27178;49.460;10.850;2024-01-16T12:51:03;5.20;70.60
41437;DHT22;27178;49.460;10.850;2024-01-16T12:53:33;5.20;70.30
41437;DHT22;27178;49.460;10.850;2024-01-16T12:56:04;5.30;70.00
41437;DHT22;27178;49.460;10.850;2024-01-16T12:58:35;5.30;70.20
41437;DHT22;27178;49.460;10.850;2024-01-16T13:01:25;5.30;70.80
41437;DHT22;27178;49.460;10.850;2024-01-16T13:04:06;5.30;70.20
41437;DHT22;27178;49.460;10.850;2024-01-16T13:06:35;5.40;70.80
41437;DHT22;27178;49.460;10.850;2024-01-16T13:09:05;5.40;70.40
41437;DHT22;27178;49.460;10.850;2024-01-16T13:11:46;5.40;70.00
41437;DHT22;27178;49.460;10.850;2024-01-16T13:14:14;5.40;69.50
41437;DHT22;27178;49.460;10.850;2024-01-16T13:16:44;5.40;70.00
41437;DHT22;27178;49.460;10.850;2024-01-16T13:19:12;5.40;70.00
41437;DHT22;27178;49.460;10.850;2024-01-16T13:21:43;5.40;70.20
41437;DHT22;27178;49.460;10.850;2024-01-16T13:24:12;5.40;70.00
41437;DHT22;27178;49.460;10.850;2024-01-16T13:26:40;5.40;70.00
41437;DHT22;27178;49.460;10.850;2024-01-16T13:29:10;5.50;70.20
41437;DHT22;27178;49.460;10.850;2024-01-16T13:31:38;5.50;70.00
41437;DHT22;27178;49.460;10.850;2024-01-16T13:34:08;5.50;70.00
41437;DHT22;27178;49.460;10.850;2024-01-16T13:36:37;5.50;69.70
41437;DHT22;27178;49.460;10.850;2024-01-16T13:39:25;5.50;69.70
41437;DHT22;27178;49.460;10.850;2024-01-16T13:41:53;5.50;69.90
41437;DHT22;27178;49.460;10.850;2024-01-16T13:44:22;5.60;70.30
41437;DHT22;27178;49.460;10.850;2024-01-16T13:46:51;5.60;70.30
41437;DHT22;27178;49.460;10.850;2024-01-16T13:49:34;5.80;70.80
41437;DHT22;27178;49.460;10.850;2024-01-16T13:52:03;5.90;70.60
41437;DHT22;27178;49.460;10.850;2024-01-16T13:54:31;6.00;70.10
41437;DHT22;27178;49.460;10.850;2024-01-16T13:57:00;6.10;69.50
41437;DHT22;27178;49.460;10.850;2024-01-16T13:59:35;6.20;69.20
41437;DHT22;27178;49.460;10.850;2024-01-16T14:02:03;6.20;69.40
41437;DHT22;27178;49.460;10.850;2024-01-16T14:04:34;6.30;69.50
41437;DHT22;27178;49.460;10.850;2024-01-16T14:07:03;6.40;68.70
41437;DHT22;27178;49.460;10.850;2024-01-16T14:09:40;6.40;68.50
41437;DHT22;27178;49.460;10.850;2024-01-16T14:12:12;6.40;68.60
41437;DHT22;27178;49.460;10.850;2024-01-16T14:14:41;6.50;68.10
41437;DHT22;27178;49.460;10.850;2024-01-16T14:17:10;6.40;67.00
41437;DHT22;27178;49.460;10.850;2024-01-16T14:19:40;6.40;66.60
41437;DHT22;27178;49.460;10.850;2024-01-16T14:22:09;6.40;66.10
41437;DHT22;27178;49.460;10.850;2024-01-16T14:24:37;6.30;66.20
41437;DHT22;27178;49.460;10.850;2024-01-16T14:27:06;6.30;65.80
41437;DHT22;27178;49.460;10.850;2024-01-16T14:29:37;6.20;65.60
41437;DHT22;27178;49.460;10.850;2024-01-16T14:32:07;6.20;65.80
41437;DHT22;27178;49.460;10.850;2024-01-16T14:34:35;6.10;65.90
41437;DHT22;27178;49.460;10.850;2024-01-16T14:37:05;6.50;66.30
41437;DHT22;27178;49.460;10.850;2024-01-16T14:39:34;6.00;66.20
41437;DHT22;27178;49.460;10.850;2024-01-16T14:42:04;5.90;65.90
41437;DHT22;27178;49.460;10.850;2024-01-16T14:44:33;5.80;66.30
41437;DHT22;27178;49.460;10.850;2024-01-16T14:47:01;5.80;66.60
41437;DHT22;27178;49.460;10.850;2024-01-16T14:49:31;5.70;66.90
41437;DHT22;27178;49.460;10.850;2024-01-16T14:52:00;5.70;66.70
41437;DHT22;27178;49.460;10.850;2024-01-16T14:54:29;5.60;66.50
41437;DHT22;27178;49.460;10.850;2024-01-16T14:56:58;5.50;66.20
41437;DHT22;27178;49.460;10.850;2024-01-16T14:59:27;5.50;66.20
41437;DHT22;27178;49.460;10.850;2024-01-16T15:01:55;5.40;66.10
41437;DHT22;27178;49.460;10.850;2024-01-16T15:04:23;5.30;66.20
41437;DHT22;27178;49.460;10.850;2024-01-16T15:06:52;5.30;66.50
41437;DHT22;27178;49.460;10.850;2024-01-16T15:09:22;5.20;66.60
41437;DHT22;27178;49.460;10.850;2024-01-16T15:11:52;5.20;66.90
41437;DHT22;27178;49.460;10.850;2024-01-16T15:14:21;5.10;66.80
41437;DHT22;27178;49.460;10.850;2024-01-16T15:16:49;5.10;66.70
41437;DHT22;27178;49.460;10.850;2024-01-16T15:19:17;5.00;66.50
41437;DHT22;27178;49.460;10.850;2024-01-16T15:21:46;4.90;66.90
41437;DHT22;27178;49.460;10.850;2024-01-16T15:24:14;4.90;67.30
41437;DHT22;27178;49.460;10.850;2024-01-16T15:26:47;4.80;67.60
41437;DHT22;27178;49.460;10.850;2024-01-16T15:29:16;4.80;67.60
41437;DHT22;27178;49.460;10.850;2024-01-16T15:31:45;4.80;67.60
41437;DHT22;27178;49.460;10.850;2024-01-16T15:34:13;4.80;67.40
41437;DHT22;27178;49.460;10.850;2024-01-16T15:36:43;4.80;67.30
41437;DHT22;27178;49.460;10.850;2024-01-16T15:39:12;4.70;67.40
41437;DHT22;27178;49.460;10.850;2024-01-16T15:41:43;4.70;67.30
41437;DHT22;27178;49.460;10.850;2024-01-16T15:44:11;4.60;67.60
41437;DHT22;27178;49.460;10.850;2024-01-16T15:46:57;4.60;67.90
41437;DHT22;27178;49.460;10.850;2024-01-16T15:49:26;4.60;67.90